sensor_id;sensor_type;location;lat;lon;timestamp;P1;durP1;ratioP1;P2;durP2;ratioP2
56037;SDS011;41907;47.848;9.000;2024-01-30T00:02:12;42.15;;;22.42;;
56037;SDS011;41907;47.848;9.000;2024-01-30T00:04:37;44.08;;;23.13;;
56037;SDS011;41907;47.848;9.000;2024-01-30T00:07:03;42.67;;;21.52;;
56037;SDS011;41907;47.848;9.000;2024-01-30T00:09:28;43.58;;;21.13;;
56037;SDS011;41907;47.848;9.000;2024-01-30T00:11:54;45.95;;;21.65;;
56037;SDS011;41907;47.848;9.000;2024-01-30T00:14:19;47.55;;;21.90;;
56037;SDS011;41907;47.848;9.000;2024-01-30T00:16:44;45.33;;;22.30;;
56037;SDS011;41907;47.848;9.000;2024-01-30T00:19:10;45.38;;;22.80;;
56037;SDS011;41907;47.848;9.000;2024-01-30T00:21:35;45.20;;;22.58;;
56037;SDS011;41907;47.848;9.000;2024-01-30T00:24:01;48.78;;;23.65;;
56037;SDS011;41907;47.848;9.000;2024-01-30T00:26:26;41.40;;;22.45;;
56037;SDS011;41907;47.848;9.000;2024-01-30T00:28:51;47.85;;;23.75;;
56037;SDS011;41907;47.848;9.000;2024-01-30T00:31:17;43.88;;;22.92;;
56037;SDS011;41907;47.848;9.000;2024-01-30T00:33:42;43.30;;;22.58;;
56037;SDS011;41907;47.848;9.000;2024-01-30T00:36:08;48.47;;;22.83;;
56037;SDS011;41907;47.848;9.000;2024-01-30T00:38:34;45.20;;;22.98;;
56037;SDS011;41907;47.848;9.000;2024-01-30T00:41:00;48.67;;;23.80;;
56037;SDS011;41907;47.848;9.000;2024-01-30T00:43:27;47.78;;;22.83;;
56037;SDS011;41907;47.848;9.000;2024-01-30T00:45:53;44.90;;;22.15;;
56037;SDS011;41907;47.848;9.000;2024-01-30T00:48:19;46.58;;;22.60;;
56037;SDS011;41907;47.848;9.000;2024-01-30T00:50:44;57.35;;;25.20;;
56037;SDS011;41907;47.848;9.000;2024-01-30T00:53:10;51.47;;;23.63;;
56037;SDS011;41907;47.848;9.000;2024-01-30T00:55:36;50.08;;;22.65;;
56037;SDS011;41907;47.848;9.000;2024-01-30T00:58:01;45.78;;;23.30;;
56037;SDS011;41907;47.848;9.000;2024-01-30T01:00:26;44.83;;;21.73;;
56037;SDS011;41907;47.848;9.000;2024-01-30T01:02:56;44.95;;;21.85;;
56037;SDS011;41907;47.848;9.000;2024-01-30T01:05:21;40.80;;;20.45;;
56037;SDS011;41907;47.848;9.000;2024-01-30T01:07:46;36.80;;;19.83;;
56037;SDS011;41907;47.848;9.000;2024-01-30T01:10:16;42.15;;;20.83;;
56037;SDS011;41907;47.848;9.000;2024-01-30T01:12:42;43.00;;;20.50;;
56037;SDS011;41907;47.848;9.000;2024-01-30T01:15:07;37.88;;;20.20;;
56037;SDS011;41907;47.848;9.000;2024-01-30T01:17:36;38.88;;;20.42;;
56037;SDS011;41907;47.848;9.000;2024-01-30T01:20:02;38.15;;;21.00;;
56037;SDS011;41907;47.848;9.000;2024-01-30T01:22:28;39.95;;;18.75;;
56037;SDS011;41907;47.848;9.000;2024-01-30T01:24:54;38.05;;;19.80;;
56037;SDS011;41907;47.848;9.000;2024-01-30T01:27:19;40.85;;;20.95;;
56037;SDS011;41907;47.848;9.000;2024-01-30T01:29:44;42.95;;;21.05;;
56037;SDS011;41907;47.848;9.000;2024-01-30T01:32:10;36.63;;;19.33;;
56037;SDS011;41907;47.848;9.000;2024-01-30T01:34:36;34.50;;;19.52;;
56037;SDS011;41907;47.848;9.000;2024-01-30T01:37:01;43.95;;;20.60;;
56037;SDS011;41907;47.848;9.000;2024-01-30T01:39:27;46.53;;;22.65;;
56037;SDS011;41907;47.848;9.000;2024-01-30T01:41:52;40.65;;;21.23;;
56037;SDS011;41907;47.848;9.000;2024-01-30T01:44:18;39.53;;;20.63;;
56037;SDS011;41907;47.848;9.000;2024-01-30T01:46:43;39.80;;;20.63;;
56037;SDS011;41907;47.848;9.000;2024-01-30T01:49:09;38.28;;;20.88;;
56037;SDS011;41907;47.848;9.000;2024-01-30T01:51:35;41.38;;;20.60;;
56037;SDS011;41907;47.848;9.000;2024-01-30T01:54:04;38.15;;;18.92;;
56037;SDS011;41907;47.848;9.000;2024-01-30T01:56:33;37.90;;;19.98;;
56037;SDS011;41907;47.848;9.000;2024-01-30T01:59:00;37.53;;;20.77;;
56037;SDS011;41907;47.848;9.000;2024-01-30T02:01:29;36.22;;;18.88;;
56037;SDS011;41907;47.848;9.000;2024-01-30T02:03:57;38.42;;;19.63;;
56037;SDS011;41907;47.848;9.000;2024-01-30T02:06:23;33.28;;;17.95;;
56037;SDS011;41907;47.848;9.000;2024-01-30T02:08:49;35.30;;;19.48;;
56037;SDS011;41907;47.848;9.000;2024-01-30T02:11:14;36.47;;;18.70;;
56037;SDS011;41907;47.848;9.000;2024-01-30T02:13:41;32.03;;;18.08;;
56037;SDS011;41907;47.848;9.000;2024-01-30T02:16:07;36.83;;;18.35;;
56037;SDS011;41907;47.848;9.000;2024-01-30T02:18:32;35.20;;;20.05;;
56037;SDS011;41907;47.848;9.000;2024-01-30T02:20:58;36.00;;;18.95;;
56037;SDS011;41907;47.848;9.000;2024-01-30T02:23:26;37.00;;;18.70;;
56037;SDS011;41907;47.848;9.000;2024-01-30T02:25:52;34.10;;;17.60;;
56037;SDS011;41907;47.848;9.000;2024-01-30T02:28:18;31.30;;;17.33;;
56037;SDS011;41907;47.848;9.000;2024-01-30T02:30:44;33.80;;;18.10;;
56037;SDS011;41907;47.848;9.000;2024-01-30T02:33:10;35.85;;;17.65;;
56037;SDS011;41907;47.848;9.000;2024-01-30T02:35:36;30.63;;;16.60;;
56037;SDS011;41907;47.848;9.000;2024-01-30T02:38:02;31.88;;;17.17;;
56037;SDS011;41907;47.848;9.000;2024-01-30T02:40:27;31.05;;;16.65;;
56037;SDS011;41907;47.848;9.000;2024-01-30T02:42:52;31.90;;;16.58;;
56037;SDS011;41907;47.848;9.000;2024-01-30T02:45:18;33.88;;;17.20;;
56037;SDS011;41907;47.848;9.000;2024-01-30T02:47:43;33.92;;;16.73;;
56037;SDS011;41907;47.848;9.000;2024-01-30T02:50:09;28.17;;;17.30;;
56037;SDS011;41907;47.848;9.000;2024-01-30T02:52:34;33.75;;;18.05;;
56037;SDS011;41907;47.848;9.000;2024-01-30T02:55:00;29.88;;;17.35;;
56037;SDS011;41907;47.848;9.000;2024-01-30T02:57:25;29.95;;;16.23;;
56037;SDS011;41907;47.848;9.000;2024-01-30T02:59:51;29.33;;;15.75;;
56037;SDS011;41907;47.848;9.000;2024-01-30T03:02:16;29.63;;;16.35;;
56037;SDS011;41907;47.848;9.000;2024-01-30T03:04:42;29.90;;;16.80;;
56037;SDS011;41907;47.848;9.000;2024-01-30T03:07:07;30.23;;;16.50;;
56037;SDS011;41907;47.848;9.000;2024-01-30T03:09:33;35.90;;;15.80;;
56037;SDS011;41907;47.848;9.000;2024-01-30T03:11:58;30.65;;;16.35;;
56037;SDS011;41907;47.848;9.000;2024-01-30T03:14:24;26.67;;;16.35;;
56037;SDS011;41907;47.848;9.000;2024-01-30T03:16:49;28.83;;;16.58;;
56037;SDS011;41907;47.848;9.000;2024-01-30T03:19:14;30.38;;;16.90;;
56037;SDS011;41907;47.848;9.000;2024-01-30T03:21:40;29.25;;;16.65;;
56037;SDS011;41907;47.848;9.000;2024-01-30T03:24:05;31.15;;;15.88;;
56037;SDS011;41907;47.848;9.000;2024-01-30T03:26:31;29.90;;;16.45;;
56037;SDS011;41907;47.848;9.000;2024-01-30T03:28:56;29.85;;;17.15;;
56037;SDS011;41907;47.848;9.000;2024-01-30T03:31:21;28.98;;;15.77;;
56037;SDS011;41907;47.848;9.000;2024-01-30T03:33:47;29.98;;;17.65;;
56037;SDS011;41907;47.848;9.000;2024-01-30T03:36:12;30.30;;;15.95;;
56037;SDS011;41907;47.848;9.000;2024-01-30T03:38:38;28.58;;;15.75;;
56037;SDS011;41907;47.848;9.000;2024-01-30T03:41:03;28.65;;;16.35;;
56037;SDS011;41907;47.848;9.000;2024-01-30T03:43:28;31.42;;;17.40;;
56037;SDS011;41907;47.848;9.000;2024-01-30T03:45:54;32.17;;;16.25;;
56037;SDS011;41907;47.848;9.000;2024-01-30T03:48:20;31.65;;;16.60;;
56037;SDS011;41907;47.848;9.000;2024-01-30T03:50:46;28.80;;;15.63;;
56037;SDS011;41907;47.848;9.000;2024-01-30T03:53:11;25.70;;;14.90;;
56037;SDS011;41907;47.848;9.000;2024-01-30T03:55:36;28.73;;;15.27;;
56037;SDS011;41907;47.848;9.000;2024-01-30T03:58:02;28.40;;;15.60;;
56037;SDS011;41907;47.848;9.000;2024-01-30T04:00:27;28.75;;;15.52;;
56037;SDS011;41907;47.848;9.000;2024-01-30T04:02:52;28.58;;;15.60;;
56037;SDS011;41907;47.848;9.000;2024-01-30T04:05:18;28.92;;;14.70;;
56037;SDS011;41907;47.848;9.000;2024-01-30T04:07:43;28.95;;;15.25;;
56037;SDS011;41907;47.848;9.000;2024-01-30T04:10:09;25.55;;;13.73;;
56037;SDS011;41907;47.848;9.000;2024-01-30T04:12:35;30.30;;;14.95;;
56037;SDS011;41907;47.848;9.000;2024-01-30T04:15:00;28.42;;;13.88;;
56037;SDS011;41907;47.848;9.000;2024-01-30T04:17:26;28.58;;;16.08;;
56037;SDS011;41907;47.848;9.000;2024-01-30T04:19:53;26.23;;;14.68;;
56037;SDS011;41907;47.848;9.000;2024-01-30T04:22:18;30.27;;;15.32;;
56037;SDS011;41907;47.848;9.000;2024-01-30T04:24:43;27.77;;;15.85;;
56037;SDS011;41907;47.848;9.000;2024-01-30T04:27:09;26.40;;;15.45;;
56037;SDS011;41907;47.848;9.000;2024-01-30T04:29:34;27.05;;;14.90;;
56037;SDS011;41907;47.848;9.000;2024-01-30T04:31:59;27.25;;;14.48;;
56037;SDS011;41907;47.848;9.000;2024-01-30T04:34:25;27.23;;;14.70;;
56037;SDS011;41907;47.848;9.000;2024-01-30T04:36:50;24.95;;;15.55;;
56037;SDS011;41907;47.848;9.000;2024-01-30T04:39:15;28.05;;;15.02;;
56037;SDS011;41907;47.848;9.000;2024-01-30T04:41:41;27.13;;;14.57;;
56037;SDS011;41907;47.848;9.000;2024-01-30T04:44:06;28.98;;;15.57;;
56037;SDS011;41907;47.848;9.000;2024-01-30T04:46:31;27.02;;;15.00;;
56037;SDS011;41907;47.848;9.000;2024-01-30T04:48:59;25.58;;;15.25;;
56037;SDS011;41907;47.848;9.000;2024-01-30T04:51:24;25.98;;;14.75;;
56037;SDS011;41907;47.848;9.000;2024-01-30T04:53:49;28.30;;;15.57;;
56037;SDS011;41907;47.848;9.000;2024-01-30T04:56:15;26.60;;;15.45;;
56037;SDS011;41907;47.848;9.000;2024-01-30T04:58:40;24.70;;;13.55;;
56037;SDS011;41907;47.848;9.000;2024-01-30T05:01:05;26.98;;;16.30;;
56037;SDS011;41907;47.848;9.000;2024-01-30T05:03:33;27.85;;;16.83;;
56037;SDS011;41907;47.848;9.000;2024-01-30T05:05:59;27.88;;;16.20;;
56037;SDS011;41907;47.848;9.000;2024-01-30T05:08:24;30.75;;;15.75;;
56037;SDS011;41907;47.848;9.000;2024-01-30T05:10:53;30.05;;;15.75;;
56037;SDS011;41907;47.848;9.000;2024-01-30T05:13:18;29.95;;;16.83;;
56037;SDS011;41907;47.848;9.000;2024-01-30T05:15:43;31.63;;;16.40;;
56037;SDS011;41907;47.848;9.000;2024-01-30T05:18:09;27.08;;;15.35;;
56037;SDS011;41907;47.848;9.000;2024-01-30T05:20:34;27.52;;;14.93;;
56037;SDS011;41907;47.848;9.000;2024-01-30T05:22:59;27.80;;;15.90;;
56037;SDS011;41907;47.848;9.000;2024-01-30T05:25:25;27.25;;;15.35;;
56037;SDS011;41907;47.848;9.000;2024-01-30T05:27:50;27.67;;;15.38;;
56037;SDS011;41907;47.848;9.000;2024-01-30T05:30:15;25.48;;;14.57;;
56037;SDS011;41907;47.848;9.000;2024-01-30T05:32:41;25.88;;;15.02;;
56037;SDS011;41907;47.848;9.000;2024-01-30T05:35:06;24.75;;;14.07;;
56037;SDS011;41907;47.848;9.000;2024-01-30T05:37:33;25.40;;;13.85;;
56037;SDS011;41907;47.848;9.000;2024-01-30T05:39:58;24.65;;;14.93;;
56037;SDS011;41907;47.848;9.000;2024-01-30T05:42:23;26.40;;;14.98;;
56037;SDS011;41907;47.848;9.000;2024-01-30T05:44:49;28.20;;;15.07;;
56037;SDS011;41907;47.848;9.000;2024-01-30T05:47:14;26.92;;;16.00;;
56037;SDS011;41907;47.848;9.000;2024-01-30T05:49:40;31.50;;;15.52;;
56037;SDS011;41907;47.848;9.000;2024-01-30T05:52:06;27.13;;;16.00;;
56037;SDS011;41907;47.848;9.000;2024-01-30T05:54:31;27.95;;;15.65;;
56037;SDS011;41907;47.848;9.000;2024-01-30T05:56:57;27.38;;;15.05;;
56037;SDS011;41907;47.848;9.000;2024-01-30T05:59:22;32.90;;;15.80;;
56037;SDS011;41907;47.848;9.000;2024-01-30T06:01:48;30.17;;;17.58;;
56037;SDS011;41907;47.848;9.000;2024-01-30T06:04:14;32.58;;;17.27;;
56037;SDS011;41907;47.848;9.000;2024-01-30T06:06:39;29.63;;;15.85;;
56037;SDS011;41907;47.848;9.000;2024-01-30T06:09:05;30.20;;;17.83;;
56037;SDS011;41907;47.848;9.000;2024-01-30T06:11:33;31.55;;;17.52;;
56037;SDS011;41907;47.848;9.000;2024-01-30T06:13:58;30.10;;;16.13;;
56037;SDS011;41907;47.848;9.000;2024-01-30T06:16:23;33.90;;;17.52;;
56037;SDS011;41907;47.848;9.000;2024-01-30T06:18:49;30.45;;;17.02;;
56037;SDS011;41907;47.848;9.000;2024-01-30T06:21:14;29.55;;;16.42;;
56037;SDS011;41907;47.848;9.000;2024-01-30T06:23:40;34.13;;;17.45;;
56037;SDS011;41907;47.848;9.000;2024-01-30T06:26:06;31.13;;;17.17;;
56037;SDS011;41907;47.848;9.000;2024-01-30T06:28:32;28.52;;;17.02;;
56037;SDS011;41907;47.848;9.000;2024-01-30T06:30:57;31.58;;;17.95;;
56037;SDS011;41907;47.848;9.000;2024-01-30T06:33:22;31.83;;;16.75;;
56037;SDS011;41907;47.848;9.000;2024-01-30T06:35:48;30.35;;;14.93;;
56037;SDS011;41907;47.848;9.000;2024-01-30T06:38:13;29.15;;;16.92;;
56037;SDS011;41907;47.848;9.000;2024-01-30T06:40:40;30.50;;;16.52;;
56037;SDS011;41907;47.848;9.000;2024-01-30T06:43:06;31.48;;;16.20;;
56037;SDS011;41907;47.848;9.000;2024-01-30T06:45:32;30.63;;;17.05;;
56037;SDS011;41907;47.848;9.000;2024-01-30T06:47:59;31.00;;;17.58;;
56037;SDS011;41907;47.848;9.000;2024-01-30T06:50:25;35.22;;;18.02;;
56037;SDS011;41907;47.848;9.000;2024-01-30T06:52:50;28.90;;;16.73;;
56037;SDS011;41907;47.848;9.000;2024-01-30T06:55:16;27.65;;;14.93;;
56037;SDS011;41907;47.848;9.000;2024-01-30T06:57:41;29.13;;;17.15;;
56037;SDS011;41907;47.848;9.000;2024-01-30T07:00:07;26.83;;;16.02;;
56037;SDS011;41907;47.848;9.000;2024-01-30T07:02:32;29.90;;;16.52;;
56037;SDS011;41907;47.848;9.000;2024-01-30T07:04:58;27.02;;;16.58;;
56037;SDS011;41907;47.848;9.000;2024-01-30T07:07:23;31.77;;;17.25;;
56037;SDS011;41907;47.848;9.000;2024-01-30T07:09:49;33.88;;;19.25;;
56037;SDS011;41907;47.848;9.000;2024-01-30T07:12:17;29.35;;;17.58;;
56037;SDS011;41907;47.848;9.000;2024-01-30T07:14:42;33.45;;;17.15;;
56037;SDS011;41907;47.848;9.000;2024-01-30T07:17:08;29.88;;;17.60;;
56037;SDS011;41907;47.848;9.000;2024-01-30T07:19:33;26.98;;;15.63;;
56037;SDS011;41907;47.848;9.000;2024-01-30T07:21:59;29.35;;;16.40;;
56037;SDS011;41907;47.848;9.000;2024-01-30T07:24:24;28.45;;;15.65;;
56037;SDS011;41907;47.848;9.000;2024-01-30T07:26:50;29.08;;;14.73;;
56037;SDS011;41907;47.848;9.000;2024-01-30T07:29:16;25.77;;;14.90;;
56037;SDS011;41907;47.848;9.000;2024-01-30T07:31:43;25.60;;;15.98;;
56037;SDS011;41907;47.848;9.000;2024-01-30T07:34:09;27.33;;;16.23;;
56037;SDS011;41907;47.848;9.000;2024-01-30T07:36:34;27.75;;;15.35;;
56037;SDS011;41907;47.848;9.000;2024-01-30T07:38:59;24.73;;;15.85;;
56037;SDS011;41907;47.848;9.000;2024-01-30T07:41:25;29.88;;;17.05;;
56037;SDS011;41907;47.848;9.000;2024-01-30T07:43:50;27.48;;;16.38;;
56037;SDS011;41907;47.848;9.000;2024-01-30T07:46:15;27.33;;;15.63;;
56037;SDS011;41907;47.848;9.000;2024-01-30T07:48:41;29.70;;;16.48;;
56037;SDS011;41907;47.848;9.000;2024-01-30T07:51:06;24.98;;;15.68;;
56037;SDS011;41907;47.848;9.000;2024-01-30T07:53:32;27.17;;;15.93;;
56037;SDS011;41907;47.848;9.000;2024-01-30T07:55:57;27.70;;;16.42;;
56037;SDS011;41907;47.848;9.000;2024-01-30T07:58:22;32.42;;;18.25;;
56037;SDS011;41907;47.848;9.000;2024-01-30T08:00:48;35.35;;;21.55;;
56037;SDS011;41907;47.848;9.000;2024-01-30T08:03:14;25.05;;;14.48;;
56037;SDS011;41907;47.848;9.000;2024-01-30T08:05:41;39.95;;;19.38;;
56037;SDS011;41907;47.848;9.000;2024-01-30T08:08:07;36.53;;;17.23;;
56037;SDS011;41907;47.848;9.000;2024-01-30T08:10:32;28.02;;;18.10;;
56037;SDS011;41907;47.848;9.000;2024-01-30T08:12:57;28.15;;;16.40;;
56037;SDS011;41907;47.848;9.000;2024-01-30T08:15:23;30.02;;;17.23;;
56037;SDS011;41907;47.848;9.000;2024-01-30T08:17:48;49.40;;;21.88;;
56037;SDS011;41907;47.848;9.000;2024-01-30T08:20:14;67.65;;;29.00;;
56037;SDS011;41907;47.848;9.000;2024-01-30T08:22:39;105.32;;;41.13;;
56037;SDS011;41907;47.848;9.000;2024-01-30T08:25:05;133.30;;;48.65;;
56037;SDS011;41907;47.848;9.000;2024-01-30T08:27:31;184.65;;;70.80;;
56037;SDS011;41907;47.848;9.000;2024-01-30T08:29:56;169.85;;;66.88;;
56037;SDS011;41907;47.848;9.000;2024-01-30T08:32:22;164.00;;;69.80;;
56037;SDS011;41907;47.848;9.000;2024-01-30T08:34:48;123.43;;;53.92;;
56037;SDS011;41907;47.848;9.000;2024-01-30T08:37:14;100.57;;;44.08;;
56037;SDS011;41907;47.848;9.000;2024-01-30T08:39:41;160.25;;;74.38;;
56037;SDS011;41907;47.848;9.000;2024-01-30T08:42:07;87.55;;;40.63;;
56037;SDS011;41907;47.848;9.000;2024-01-30T08:44:33;93.60;;;46.10;;
56037;SDS011;41907;47.848;9.000;2024-01-30T08:46:58;52.53;;;24.75;;
56037;SDS011;41907;47.848;9.000;2024-01-30T08:49:23;65.88;;;32.97;;
56037;SDS011;41907;47.848;9.000;2024-01-30T08:51:49;170.98;;;91.40;;
56037;SDS011;41907;47.848;9.000;2024-01-30T08:54:15;156.02;;;88.82;;
56037;SDS011;41907;47.848;9.000;2024-01-30T08:56:40;91.38;;;43.15;;
56037;SDS011;41907;47.848;9.000;2024-01-30T08:59:06;60.42;;;30.05;;
56037;SDS011;41907;47.848;9.000;2024-01-30T09:01:31;87.55;;;40.20;;
56037;SDS011;41907;47.848;9.000;2024-01-30T09:03:57;87.60;;;38.90;;
56037;SDS011;41907;47.848;9.000;2024-01-30T09:06:22;92.22;;;40.47;;
56037;SDS011;41907;47.848;9.000;2024-01-30T09:08:49;107.90;;;46.03;;
56037;SDS011;41907;47.848;9.000;2024-01-30T09:11:14;109.25;;;49.05;;
56037;SDS011;41907;47.848;9.000;2024-01-30T09:13:40;105.22;;;47.30;;
56037;SDS011;41907;47.848;9.000;2024-01-30T09:16:06;103.60;;;48.30;;
56037;SDS011;41907;47.848;9.000;2024-01-30T09:18:32;90.25;;;42.38;;
56037;SDS011;41907;47.848;9.000;2024-01-30T09:20:57;94.13;;;45.67;;
56037;SDS011;41907;47.848;9.000;2024-01-30T09:23:23;90.47;;;42.75;;
56037;SDS011;41907;47.848;9.000;2024-01-30T09:25:49;90.70;;;43.95;;
56037;SDS011;41907;47.848;9.000;2024-01-30T09:28:15;90.55;;;44.20;;
56037;SDS011;41907;47.848;9.000;2024-01-30T09:30:42;104.28;;;48.38;;
56037;SDS011;41907;47.848;9.000;2024-01-30T09:33:08;104.38;;;45.92;;
56037;SDS011;41907;47.848;9.000;2024-01-30T09:35:33;91.68;;;42.33;;
56037;SDS011;41907;47.848;9.000;2024-01-30T09:37:58;110.47;;;52.13;;
56037;SDS011;41907;47.848;9.000;2024-01-30T09:40:24;121.97;;;53.05;;
56037;SDS011;41907;47.848;9.000;2024-01-30T09:42:49;112.95;;;52.45;;
56037;SDS011;41907;47.848;9.000;2024-01-30T09:45:17;111.97;;;54.17;;
56037;SDS011;41907;47.848;9.000;2024-01-30T09:47:44;124.05;;;62.25;;
56037;SDS011;41907;47.848;9.000;2024-01-30T09:50:10;108.55;;;57.25;;
56037;SDS011;41907;47.848;9.000;2024-01-30T09:52:38;118.13;;;54.78;;
56037;SDS011;41907;47.848;9.000;2024-01-30T09:55:05;107.10;;;51.97;;
56037;SDS011;41907;47.848;9.000;2024-01-30T09:57:31;115.25;;;64.10;;
56037;SDS011;41907;47.848;9.000;2024-01-30T09:59:56;104.07;;;50.75;;
56037;SDS011;41907;47.848;9.000;2024-01-30T10:02:22;140.02;;;69.28;;
56037;SDS011;41907;47.848;9.000;2024-01-30T10:04:48;101.38;;;46.13;;
56037;SDS011;41907;47.848;9.000;2024-01-30T10:07:15;117.18;;;50.53;;
56037;SDS011;41907;47.848;9.000;2024-01-30T10:09:40;106.50;;;51.80;;
56037;SDS011;41907;47.848;9.000;2024-01-30T10:12:09;102.68;;;49.20;;
56037;SDS011;41907;47.848;9.000;2024-01-30T10:14:37;92.32;;;46.08;;
56037;SDS011;41907;47.848;9.000;2024-01-30T10:17:03;98.72;;;49.25;;
56037;SDS011;41907;47.848;9.000;2024-01-30T10:19:30;103.75;;;49.83;;
56037;SDS011;41907;47.848;9.000;2024-01-30T10:21:56;114.68;;;61.35;;
56037;SDS011;41907;47.848;9.000;2024-01-30T10:24:24;106.13;;;52.17;;
56037;SDS011;41907;47.848;9.000;2024-01-30T10:26:50;97.28;;;46.83;;
56037;SDS011;41907;47.848;9.000;2024-01-30T10:29:16;103.15;;;49.25;;
56037;SDS011;41907;47.848;9.000;2024-01-30T10:31:42;103.38;;;53.78;;
56037;SDS011;41907;47.848;9.000;2024-01-30T10:34:07;100.18;;;47.53;;
56037;SDS011;41907;47.848;9.000;2024-01-30T10:36:33;83.18;;;41.08;;
56037;SDS011;41907;47.848;9.000;2024-01-30T10:39:10;94.95;;;45.70;;
56037;SDS011;41907;47.848;9.000;2024-01-30T10:41:42;98.40;;;46.97;;
56037;SDS011;41907;47.848;9.000;2024-01-30T10:44:09;95.95;;;43.80;;
56037;SDS011;41907;47.848;9.000;2024-01-30T10:46:35;102.50;;;47.17;;
56037;SDS011;41907;47.848;9.000;2024-01-30T10:49:03;86.47;;;45.03;;
56037;SDS011;41907;47.848;9.000;2024-01-30T10:51:29;89.47;;;41.92;;
56037;SDS011;41907;47.848;9.000;2024-01-30T10:53:56;82.35;;;38.17;;
56037;SDS011;41907;47.848;9.000;2024-01-30T10:56:22;75.45;;;35.65;;
56037;SDS011;41907;47.848;9.000;2024-01-30T10:58:50;65.50;;;33.78;;
56037;SDS011;41907;47.848;9.000;2024-01-30T11:01:17;64.82;;;32.15;;
56037;SDS011;41907;47.848;9.000;2024-01-30T11:03:44;74.05;;;37.35;;
56037;SDS011;41907;47.848;9.000;2024-01-30T11:06:10;64.43;;;34.22;;
56037;SDS011;41907;47.848;9.000;2024-01-30T11:08:39;65.38;;;33.28;;
56037;SDS011;41907;47.848;9.000;2024-01-30T11:11:07;76.28;;;42.15;;
56037;SDS011;41907;47.848;9.000;2024-01-30T11:13:35;72.20;;;34.17;;
56037;SDS011;41907;47.848;9.000;2024-01-30T11:16:00;63.20;;;32.50;;
56037;SDS011;41907;47.848;9.000;2024-01-30T11:18:30;67.75;;;35.40;;
56037;SDS011;41907;47.848;9.000;2024-01-30T11:20:58;67.85;;;33.50;;
56037;SDS011;41907;47.848;9.000;2024-01-30T11:23:30;62.15;;;32.75;;
56037;SDS011;41907;47.848;9.000;2024-01-30T11:25:58;68.47;;;35.08;;
56037;SDS011;41907;47.848;9.000;2024-01-30T11:28:23;76.30;;;33.95;;
56037;SDS011;41907;47.848;9.000;2024-01-30T11:30:49;67.25;;;33.78;;
56037;SDS011;41907;47.848;9.000;2024-01-30T11:33:30;66.10;;;33.10;;
56037;SDS011;41907;47.848;9.000;2024-01-30T11:35:56;70.28;;;34.72;;
56037;SDS011;41907;47.848;9.000;2024-01-30T11:38:25;65.95;;;34.72;;
56037;SDS011;41907;47.848;9.000;2024-01-30T11:40:52;63.75;;;32.78;;
56037;SDS011;41907;47.848;9.000;2024-01-30T11:43:18;62.97;;;33.63;;
56037;SDS011;41907;47.848;9.000;2024-01-30T11:45:44;61.70;;;32.33;;
56037;SDS011;41907;47.848;9.000;2024-01-30T11:48:11;60.78;;;33.28;;
56037;SDS011;41907;47.848;9.000;2024-01-30T11:50:37;65.25;;;31.77;;
56037;SDS011;41907;47.848;9.000;2024-01-30T11:53:04;71.38;;;38.92;;
56037;SDS011;41907;47.848;9.000;2024-01-30T11:55:30;54.13;;;30.23;;
56037;SDS011;41907;47.848;9.000;2024-01-30T11:57:56;60.05;;;29.23;;
56037;SDS011;41907;47.848;9.000;2024-01-30T12:00:22;70.60;;;34.58;;
56037;SDS011;41907;47.848;9.000;2024-01-30T12:02:51;54.13;;;30.48;;
56037;SDS011;41907;47.848;9.000;2024-01-30T12:05:20;59.22;;;30.25;;
56037;SDS011;41907;47.848;9.000;2024-01-30T12:07:46;65.28;;;33.97;;
56037;SDS011;41907;47.848;9.000;2024-01-30T12:10:12;71.68;;;34.90;;
56037;SDS011;41907;47.848;9.000;2024-01-30T12:12:43;68.82;;;33.85;;
56037;SDS011;41907;47.848;9.000;2024-01-30T12:15:12;69.28;;;34.47;;
56037;SDS011;41907;47.848;9.000;2024-01-30T12:17:39;72.07;;;38.88;;
56037;SDS011;41907;47.848;9.000;2024-01-30T12:20:11;75.90;;;37.35;;
56037;SDS011;41907;47.848;9.000;2024-01-30T12:22:40;68.70;;;37.25;;
56037;SDS011;41907;47.848;9.000;2024-01-30T12:25:16;70.80;;;39.47;;
56037;SDS011;41907;47.848;9.000;2024-01-30T12:27:45;69.03;;;36.30;;
56037;SDS011;41907;47.848;9.000;2024-01-30T12:30:15;116.78;;;64.00;;
56037;SDS011;41907;47.848;9.000;2024-01-30T12:32:41;90.45;;;51.15;;
56037;SDS011;41907;47.848;9.000;2024-01-30T12:35:11;70.07;;;41.58;;
56037;SDS011;41907;47.848;9.000;2024-01-30T12:37:38;64.40;;;37.05;;
56037;SDS011;41907;47.848;9.000;2024-01-30T12:40:07;90.95;;;54.00;;
56037;SDS011;41907;47.848;9.000;2024-01-30T12:42:34;88.32;;;49.80;;
56037;SDS011;41907;47.848;9.000;2024-01-30T12:45:00;82.28;;;48.45;;
56037;SDS011;41907;47.848;9.000;2024-01-30T12:47:27;70.15;;;40.60;;
56037;SDS011;41907;47.848;9.000;2024-01-30T12:49:52;63.95;;;37.75;;
56037;SDS011;41907;47.848;9.000;2024-01-30T12:52:20;67.53;;;40.50;;
56037;SDS011;41907;47.848;9.000;2024-01-30T12:54:47;65.85;;;36.30;;
56037;SDS011;41907;47.848;9.000;2024-01-30T12:57:13;60.58;;;36.97;;
56037;SDS011;41907;47.848;9.000;2024-01-30T12:59:38;65.70;;;34.63;;
56037;SDS011;41907;47.848;9.000;2024-01-30T13:02:04;68.30;;;39.85;;
56037;SDS011;41907;47.848;9.000;2024-01-30T13:04:30;62.28;;;36.78;;
56037;SDS011;41907;47.848;9.000;2024-01-30T13:06:55;58.08;;;29.85;;
56037;SDS011;41907;47.848;9.000;2024-01-30T13:09:21;53.72;;;30.85;;
56037;SDS011;41907;47.848;9.000;2024-01-30T13:11:46;65.72;;;32.17;;
56037;SDS011;41907;47.848;9.000;2024-01-30T13:14:12;72.35;;;33.78;;
56037;SDS011;41907;47.848;9.000;2024-01-30T13:16:37;74.65;;;36.22;;
56037;SDS011;41907;47.848;9.000;2024-01-30T13:19:03;122.82;;;48.15;;
56037;SDS011;41907;47.848;9.000;2024-01-30T13:21:28;77.72;;;38.47;;
56037;SDS011;41907;47.848;9.000;2024-01-30T13:23:54;76.28;;;36.15;;
56037;SDS011;41907;47.848;9.000;2024-01-30T13:26:22;82.60;;;35.90;;
56037;SDS011;41907;47.848;9.000;2024-01-30T13:28:47;86.03;;;35.15;;
56037;SDS011;41907;47.848;9.000;2024-01-30T13:31:16;159.60;;;50.25;;
56037;SDS011;41907;47.848;9.000;2024-01-30T13:33:41;110.13;;;41.63;;
56037;SDS011;41907;47.848;9.000;2024-01-30T13:36:07;80.72;;;38.63;;
56037;SDS011;41907;47.848;9.000;2024-01-30T13:38:34;62.72;;;40.00;;
56037;SDS011;41907;47.848;9.000;2024-01-30T13:40:59;49.13;;;28.98;;
56037;SDS011;41907;47.848;9.000;2024-01-30T13:43:25;61.13;;;28.60;;
56037;SDS011;41907;47.848;9.000;2024-01-30T13:45:50;76.80;;;33.28;;
56037;SDS011;41907;47.848;9.000;2024-01-30T13:48:16;49.58;;;26.55;;
56037;SDS011;41907;47.848;9.000;2024-01-30T13:50:41;46.85;;;27.48;;
56037;SDS011;41907;47.848;9.000;2024-01-30T13:53:07;51.00;;;29.15;;
56037;SDS011;41907;47.848;9.000;2024-01-30T13:55:33;44.67;;;27.77;;
56037;SDS011;41907;47.848;9.000;2024-01-30T13:57:58;45.38;;;31.52;;
56037;SDS011;41907;47.848;9.000;2024-01-30T14:00:24;45.92;;;30.67;;
56037;SDS011;41907;47.848;9.000;2024-01-30T14:02:51;38.55;;;23.42;;
56037;SDS011;41907;47.848;9.000;2024-01-30T14:05:19;35.75;;;19.75;;
56037;SDS011;41907;47.848;9.000;2024-01-30T14:07:46;32.92;;;19.33;;
56037;SDS011;41907;47.848;9.000;2024-01-30T14:10:12;33.47;;;18.13;;
56037;SDS011;41907;47.848;9.000;2024-01-30T14:12:37;32.60;;;19.90;;
56037;SDS011;41907;47.848;9.000;2024-01-30T14:15:03;34.47;;;21.08;;